Time;durP1;ratioP1;P1;durP2;ratioP2;P2;SDS_P1;SDS_P2;PMS_P1;PMS_P2;Temp;Humidity;BMP_temperature;BMP_pressure;BME280_temperature;BME280_humidity;BME280_pressure;Samples;Min_cycle;Max_cycle;Signal;HPM_P1;HPM_P2
2023/12/28 00:01:07;;;;;;;1.60;1.20;;;;;8.90;94040.00;;;;7405253;19;20124;-74
2023/12/28 00:03:45;;;;;;;3.15;1.20;;;;;8.80;94042.00;;;;7404498;19;20605;-75
2023/12/28 00:06:19;;;;;;;1.38;1.10;;;;;8.70;94049.00;;;;7405382;19;20656;-76
2023/12/28 00:08:48;;;;;;;1.63;1.30;;;;;8.70;94051.00;;;;7405652;19;20137;-74
2023/12/28 00:11:34;;;;;;;1.50;1.10;;;;;8.70;94052.00;;;;7403558;19;20621;-74
2023/12/28 00:14:09;;;;;;;1.35;1.17;;;;;8.70;94052.00;;;;7403681;19;20144;-78
2023/12/28 00:16:42;;;;;;;2.05;1.50;;;;;8.70;94053.00;;;;7403263;19;20583;-78
2023/12/28 00:19:13;;;;;;;1.92;1.48;;;;;8.60;94045.00;;;;7404126;19;20635;-74
2023/12/28 00:21:48;;;;;;;1.77;1.30;;;;;8.70;94055.00;;;;7404092;19;20121;-77
2023/12/28 00:24:18;;;;;;;2.40;1.50;;;;;8.70;94052.00;;;;7405508;19;20603;-76
2023/12/28 00:26:52;;;;;;;1.83;1.20;;;;;8.70;94051.00;;;;7404988;19;20124;-75
2023/12/28 00:29:29;;;;;;;1.77;1.23;;;;;8.70;94058.00;;;;7403180;19;20145;-74
2023/12/28 00:31:56;;;;;;;2.63;1.47;;;;;8.70;94055.00;;;;7402870;19;20144;-76
2023/12/28 00:34:31;;;;;;;1.93;1.37;;;;;8.60;94061.00;;;;7404255;19;20481;-77
2023/12/28 00:37:16;;;;;;;2.30;1.33;;;;;8.60;94058.00;;;;7401674;19;20160;-77
2023/12/28 00:39:46;;;;;;;1.90;1.35;;;;;8.70;94053.00;;;;7404934;19;20125;-76
2023/12/28 00:42:21;;;;;;;1.70;1.30;;;;;8.80;94057.00;;;;7402814;19;20164;-75
2023/12/28 00:44:49;;;;;;;2.60;1.40;;;;;8.90;94060.00;;;;7402953;19;20133;-77
2023/12/28 00:47:23;;;;;;;2.10;1.33;;;;;9.00;94052.00;;;;7403563;19;20599;-77
2023/12/28 00:49:59;;;;;;;2.27;1.40;;;;;9.00;94045.00;;;;7404723;19;20131;-75
2023/12/28 00:52:36;;;;;;;5.27;1.50;;;;;9.20;94061.00;;;;7402602;19;20120;-77
2023/12/28 00:55:12;;;;;;;1.48;1.10;;;;;9.20;94059.00;;;;7401552;19;20136;-76
2023/12/28 00:57:46;;;;;;;3.35;1.42;;;;;9.40;94057.00;;;;7401305;19;20157;-76
2023/12/28 01:00:14;;;;;;;1.27;1.10;;;;;9.40;94065.00;;;;7401699;19;20125;-75
2023/12/28 01:02:49;;;;;;;1.33;1.00;;;;;9.40;94078.00;;;;7394175;19;20149;-76
2023/12/28 01:05:20;;;;;;;1.20;1.10;;;;;9.40;94066.00;;;;7398663;19;20145;-75
2023/12/28 01:07:54;;;;;;;5.22;1.40;;;;;9.30;94068.00;;;;7401244;19;20639;-76
2023/12/28 01:10:22;;;;;;;1.15;1.05;;;;;9.30;94068.00;;;;7400507;19;20230;-75
2023/12/28 01:12:57;;;;;;;1.13;1.00;;;;;9.40;94067.00;;;;7402983;19;20136;-75
2023/12/28 01:15:33;;;;;;;2.50;1.40;;;;;9.40;94067.00;;;;7400087;19;20592;-76
2023/12/28 01:18:07;;;;;;;4.40;1.40;;;;;9.30;94058.00;;;;7401395;19;20176;-75
2023/12/28 01:20:41;;;;;;;1.70;1.38;;;;;9.20;94073.00;;;;7402095;19;20132;-76
2023/12/28 01:23:28;;;;;;;1.85;1.20;;;;;9.20;94077.00;;;;7402507;19;20161;-75
2023/12/28 01:26:03;;;;;;;3.15;1.10;;;;;9.20;94082.00;;;;7402920;19;20161;-77
2023/12/28 01:28:42;;;;;;;2.10;1.25;;;;;9.30;94086.00;;;;7401593;19;20221;-75
2023/12/28 01:31:16;;;;;;;5.82;1.33;;;;;9.30;94091.00;;;;7402027;19;20128;-78
2023/12/28 01:33:51;;;;;;;1.73;1.45;;;;;9.10;94087.00;;;;7403086;19;20136;-77
2023/12/28 01:36:31;;;;;;;3.42;1.13;;;;;9.00;94085.00;;;;7400131;19;20158;-76
2023/12/28 01:39:07;;;;;;;1.98;1.05;;;;;9.00;94090.00;;;;7400387;19;20152;-77
2023/12/28 01:41:47;;;;;;;2.53;1.17;;;;;9.10;94093.00;;;;7399833;19;20511;-77
2023/12/28 01:44:14;;;;;;;1.95;1.20;;;;;9.30;94099.00;;;;7401761;19;20141;-76
2023/12/28 01:46:51;;;;;;;2.75;1.27;;;;;9.20;94115.00;;;;7402347;19;20140;-77
2023/12/28 01:49:26;;;;;;;1.60;1.17;;;;;9.20;94112.00;;;;7399833;19;20135;-77
2023/12/28 01:52:02;;;;;;;1.20;1.00;;;;;9.20;94108.00;;;;7401603;19;20479;-77
2023/12/28 01:54:33;;;;;;;1.95;1.40;;;;;9.30;94112.00;;;;7402624;19;20125;-77
2023/12/28 01:57:09;;;;;;;1.65;1.10;;;;;9.20;94116.00;;;;7399236;19;20145;-79
2023/12/28 01:59:43;;;;;;;1.65;1.35;;;;;9.20;94126.00;;;;7400946;19;20177;-77
2023/12/28 02:02:18;;;;;;;1.50;1.30;;;;;9.20;94110.00;;;;7399089;19;20493;-74
2023/12/28 02:04:46;;;;;;;1.88;1.27;;;;;9.10;94115.00;;;;7400483;19;20216;-78
2023/12/28 02:07:21;;;;;;;2.35;1.55;;;;;8.90;94121.00;;;;7398223;19;20640;-77
2023/12/28 02:09:49;;;;;;;1.63;1.25;;;;;9.20;94128.00;;;;7401040;19;20149;-77
2023/12/28 02:12:24;;;;;;;1.40;1.02;;;;;9.20;94124.00;;;;7398758;19;20595;-77
2023/12/28 02:14:52;;;;;;;2.00;1.25;;;;;8.90;94132.00;;;;7399982;19;20214;-78
2023/12/28 02:17:32;;;;;;;1.98;1.20;;;;;9.00;94126.00;;;;7395245;19;20144;-76
2023/12/28 02:20:08;;;;;;;1.42;1.17;;;;;8.90;94113.00;;;;7399016;19;20626;-78
2023/12/28 02:22:36;;;;;;;1.48;1.20;;;;;9.10;94116.00;;;;7400744;19;20141;-78
2023/12/28 02:25:12;;;;;;;3.27;1.20;;;;;9.10;94117.00;;;;7395736;19;20125;-80
2023/12/28 02:27:49;;;;;;;1.38;1.10;;;;;9.10;94130.00;;;;7399894;19;20144;-76
2023/12/28 02:30:25;;;;;;;2.22;1.40;;;;;9.10;94120.00;;;;7399695;19;20144;-73
2023/12/28 02:33:10;;;;;;;4.00;1.48;;;;;9.10;94133.00;;;;7399558;19;20200;-74
2023/12/28 02:35:58;;;;;;;2.08;1.20;;;;;9.10;94133.00;;;;7398398;19;20164;-74
2023/12/28 02:38:40;;;;;;;1.45;1.30;;;;;9.20;94132.00;;;;7397656;19;20141;-75
2023/12/28 02:41:15;;;;;;;1.70;1.20;;;;;9.10;94125.00;;;;7400459;19;20142;-75
2023/12/28 02:43:58;;;;;;;1.83;1.42;;;;;9.10;94125.00;;;;7399374;19;20593;-75
2023/12/28 02:46:32;;;;;;;1.55;1.13;;;;;9.10;94138.00;;;;7398109;19;20482;-75
2023/12/28 02:49:04;;;;;;;1.77;1.42;;;;;9.10;94129.00;;;;7397809;19;20634;-75
2023/12/28 02:51:42;;;;;;;2.10;1.33;;;;;9.00;94136.00;;;;7398320;19;20148;-74
2023/12/28 02:54:10;;;;;;;1.83;1.25;;;;;9.10;94131.00;;;;7398232;19;20651;-76
2023/12/28 02:56:44;;;;;;;2.42;1.42;;;;;9.10;94133.00;;;;7396461;19;20487;-76
2023/12/28 02:59:12;;;;;;;1.08;1.00;;;;;9.20;94135.00;;;;7398119;19;20135;-75
2023/12/28 03:01:46;;;;;;;1.73;1.35;;;;;9.20;94141.00;;;;7398511;19;20591;-74
2023/12/28 03:04:23;;;;;;;1.38;1.27;;;;;9.30;94145.00;;;;7395328;19;20153;-75
2023/12/28 03:06:57;;;;;;;2.00;1.35;;;;;9.30;94139.00;;;;7399146;19;20125;-75
2023/12/28 03:09:30;;;;;;;1.85;1.25;;;;;9.30;94146.00;;;;7398480;19;20153;-74
2023/12/28 03:12:06;;;;;;;2.05;1.40;;;;;9.40;94145.00;;;;7397150;19;20136;-74
2023/12/28 03:14:48;;;;;;;1.35;1.15;;;;;9.40;94138.00;;;;7398212;19;20584;-75
2023/12/28 03:17:23;;;;;;;1.85;1.10;;;;;9.50;94136.00;;;;7396910;19;20137;-75
2023/12/28 03:19:58;;;;;;;2.53;1.38;;;;;9.40;94133.00;;;;7397166;19;20165;-73
2023/12/28 03:22:32;;;;;;;1.92;1.50;;;;;9.40;94130.00;;;;7397102;19;20152;-73
2023/12/28 03:24:59;;;;;;;1.77;1.25;;;;;9.50;94133.00;;;;7397832;19;20488;-73
2023/12/28 03:27:33;;;;;;;1.90;1.40;;;;;9.40;94122.00;;;;7397876;19;20207;-76
2023/12/28 03:30:01;;;;;;;1.77;1.10;;;;;9.40;94130.00;;;;7396007;19;20151;-75
2023/12/28 03:32:29;;;;;;;2.08;1.40;;;;;9.50;94129.00;;;;7398514;19;20837;-74
2023/12/28 03:35:09;;;;;;;2.20;1.35;;;;;9.50;94143.00;;;;7397035;19;20157;-73
2023/12/28 03:37:54;;;;;;;2.22;1.40;;;;;9.50;94136.00;;;;7394630;19;20543;-73
2023/12/28 03:40:25;;;;;;;1.52;1.35;;;;;9.40;94140.00;;;;7393147;19;20129;-73
2023/12/28 03:42:59;;;;;;;3.05;1.40;;;;;9.60;94141.00;;;;7396056;19;20727;-72
2023/12/28 03:45:33;;;;;;;1.88;1.40;;;;;9.60;94132.00;;;;7396656;19;20149;-72
2023/12/28 03:48:07;;;;;;;2.65;1.45;;;;;9.50;94140.00;;;;7396536;19;20161;-75
2023/12/28 03:50:44;;;;;;;1.67;1.40;;;;;9.50;94137.00;;;;7396683;19;20141;-73
2023/12/28 03:53:23;;;;;;;1.80;1.10;;;;;9.50;94134.00;;;;7396285;19;20474;-75
2023/12/28 03:55:51;;;;;;;1.52;1.25;;;;;9.50;94123.00;;;;7396009;19;20186;-72
2023/12/28 03:58:25;;;;;;;1.60;1.50;;;;;9.50;94128.00;;;;7394360;19;20151;-75
2023/12/28 04:01:01;;;;;;;2.20;1.30;;;;;9.50;94131.00;;;;7395188;19;20141;-73
2023/12/28 04:03:31;;;;;;;2.40;1.50;;;;;9.60;94144.00;;;;7396059;19;20145;-72
2023/12/28 04:06:13;;;;;;;2.08;1.45;;;;;9.60;94138.00;;;;7397054;19;20141;-74
2023/12/28 04:08:48;;;;;;;2.67;1.13;;;;;9.60;94133.00;;;;7395695;19;20166;-71
2023/12/28 04:11:23;;;;;;;1.85;1.35;;;;;9.50;94136.00;;;;7397236;19;20136;-74
2023/12/28 04:13:57;;;;;;;2.72;1.17;;;;;9.60;94132.00;;;;7395375;19;20600;-73
2023/12/28 04:16:25;;;;;;;1.95;1.40;;;;;9.40;94135.00;;;;7395160;19;20157;-74
2023/12/28 04:19:00;;;;;;;2.13;1.25;;;;;9.40;94129.00;;;;7394132;19;20160;-74
2023/12/28 04:21:27;;;;;;;1.55;1.27;;;;;9.50;94126.00;;;;7396895;19;20137;-73
2023/12/28 04:24:02;;;;;;;1.20;1.10;;;;;9.60;94131.00;;;;7394958;19;20489;-72
2023/12/28 04:26:30;;;;;;;1.85;1.20;;;;;9.60;94136.00;;;;7394920;19;20489;-72
2023/12/28 04:29:04;;;;;;;1.70;1.30;;;;;9.50;94128.00;;;;7396205;19;20604;-72
2023/12/28 04:31:57;;;;;;;3.63;1.33;;;;;9.50;94128.00;;;;7398307;19;20551;-75
2023/12/28 04:34:39;;;;;;;3.40;1.40;;;;;9.50;94129.00;;;;7399113;19;20152;-72
2023/12/28 04:37:18;;;;;;;1.17;1.00;;;;;9.60;94133.00;;;;7401578;19;20151;-73
2023/12/28 04:39:58;;;;;;;3.47;1.25;;;;;9.50;94133.00;;;;7400027;19;20184;-73
2023/12/28 04:42:33;;;;;;;1.23;1.15;;;;;9.50;94121.00;;;;7400492;19;20177;-73
2023/12/28 04:45:15;;;;;;;1.27;1.00;;;;;9.40;94116.00;;;;7403069;19;20597;-73
2023/12/28 04:47:49;;;;;;;1.92;1.20;;;;;9.40;94120.00;;;;7401138;19;20145;-78
2023/12/28 04:50:24;;;;;;;1.35;1.08;;;;;9.50;94132.00;;;;7401670;19;20774;-78
2023/12/28 04:53:04;;;;;;;2.88;1.17;;;;;9.50;94139.00;;;;7402650;19;20140;-76
2023/12/28 04:55:41;;;;;;;1.60;1.10;;;;;9.40;94136.00;;;;7402026;19;20613;-77
2023/12/28 04:58:15;;;;;;;1.63;1.33;;;;;9.30;94144.00;;;;7399755;19;20192;-79
2023/12/28 05:00:49;;;;;;;3.83;1.10;;;;;9.20;94149.00;;;;7401224;19;20149;-76
2023/12/28 05:03:23;;;;;;;1.60;1.10;;;;;9.20;94152.00;;;;7402625;19;20126;-79
2023/12/28 05:06:01;;;;;;;1.40;1.08;;;;;9.20;94154.00;;;;7402008;19;20124;-79
2023/12/28 05:08:36;;;;;;;3.10;1.10;;;;;9.20;94147.00;;;;7401185;19;20124;-75
2023/12/28 05:11:08;;;;;;;2.03;1.40;;;;;9.20;94155.00;;;;7402060;19;20124;-75
2023/12/28 05:13:41;;;;;;;1.60;1.15;;;;;9.20;94154.00;;;;7400341;19;20139;-77
2023/12/28 05:16:15;;;;;;;1.95;1.25;;;;;9.20;94166.00;;;;7400591;19;20139;-79
2023/12/28 05:18:49;;;;;;;3.85;1.20;;;;;9.10;94169.00;;;;7400463;19;20555;-78
2023/12/28 05:21:26;;;;;;;1.27;1.10;;;;;9.10;94180.00;;;;7400552;19;20144;-77
2023/12/28 05:23:54;;;;;;;1.95;1.20;;;;;8.90;94167.00;;;;7400430;19;20162;-77
2023/12/28 05:26:38;;;;;;;1.98;1.33;;;;;8.70;94178.00;;;;7400167;19;20530;-75
2023/12/28 05:29:07;;;;;;;3.47;1.40;;;;;8.60;94170.00;;;;7400489;19;20514;-77
2023/12/28 05:31:40;;;;;;;2.83;1.25;;;;;8.60;94165.00;;;;7399890;19;20537;-76
2023/12/28 05:34:08;;;;;;;3.03;1.67;;;;;8.60;94154.00;;;;7400525;19;20636;-76
2023/12/28 05:36:51;;;;;;;2.08;1.30;;;;;8.60;94161.00;;;;7394818;19;20596;-75
2023/12/28 05:39:19;;;;;;;2.35;1.17;;;;;8.60;94154.00;;;;7399471;19;20492;-76
2023/12/28 05:41:54;;;;;;;2.75;1.35;;;;;8.70;94148.00;;;;7396732;19;20188;-76
2023/12/28 05:44:28;;;;;;;3.38;0.95;;;;;8.60;94145.00;;;;7398649;19;20199;-78
2023/12/28 05:47:03;;;;;;;3.38;1.23;;;;;8.70;94155.00;;;;7401152;19;20160;-74
2023/12/28 05:49:34;;;;;;;1.15;1.00;;;;;8.70;94154.00;;;;7400455;19;20137;-76
2023/12/28 05:52:01;;;;;;;1.67;1.40;;;;;8.60;94153.00;;;;7399090;19;20222;-74
2023/12/28 05:54:35;;;;;;;3.95;1.10;;;;;8.70;94148.00;;;;7400760;19;20141;-76
2023/12/28 05:57:09;;;;;;;2.80;1.20;;;;;8.80;94142.00;;;;7400016;19;20161;-75
2023/12/28 05:59:40;;;;;;;2.70;1.33;;;;;8.80;94148.00;;;;7394703;19;20128;-73
2023/12/28 06:02:14;;;;;;;2.58;1.27;;;;;8.90;94161.00;;;;7398668;19;20145;-73
2023/12/28 06:04:45;;;;;;;3.33;1.20;;;;;8.80;94167.00;;;;7399030;19;20485;-73
2023/12/28 06:07:19;;;;;;;2.47;1.48;;;;;8.90;94172.00;;;;7401583;19;20196;-73
2023/12/28 06:09:47;;;;;;;1.95;1.30;;;;;8.90;94172.00;;;;7397573;19;20133;-74
2023/12/28 06:12:22;;;;;;;1.23;0.90;;;;;8.80;94186.00;;;;7400310;19;20449;-74
2023/12/28 06:14:50;;;;;;;2.17;1.30;;;;;8.60;94189.00;;;;7398335;19;20141;-75
2023/12/28 06:17:18;;;;;;;1.55;1.20;;;;;8.30;94195.00;;;;7399530;19;20147;-74
2023/12/28 06:19:53;;;;;;;2.58;1.35;;;;;8.00;94198.00;;;;7398243;19;20132;-75
2023/12/28 06:22:27;;;;;;;3.40;1.40;;;;;7.80;94200.00;;;;7399060;19;20616;-72
2023/12/28 06:25:04;;;;;;;3.63;1.30;;;;;7.60;94194.00;;;;7398860;19;20116;-73
2023/12/28 06:27:41;;;;;;;1.47;1.30;;;;;7.50;94198.00;;;;7398372;19;20510;-73
2023/12/28 06:30:23;;;;;;;1.83;1.33;;;;;7.20;94202.00;;;;7399359;19;20129;-72
2023/12/28 06:32:56;;;;;;;3.40;1.40;;;;;7.10;94218.00;;;;7400199;19;20153;-75
2023/12/28 06:35:30;;;;;;;1.60;1.23;;;;;7.10;94228.00;;;;7395597;19;20169;-73
2023/12/28 06:38:05;;;;;;;2.53;1.40;;;;;7.00;94225.00;;;;7399210;19;20159;-73
2023/12/28 06:40:39;;;;;;;1.70;1.50;;;;;6.90;94221.00;;;;7380867;19;20625;-74
2023/12/28 06:43:13;;;;;;;1.83;1.40;;;;;6.90;94225.00;;;;7396596;19;20579;-74
2023/12/28 06:45:41;;;;;;;2.07;1.20;;;;;6.90;94221.00;;;;7398166;19;21693;-73
2023/12/28 06:48:15;;;;;;;2.30;1.43;;;;;6.70;94220.00;;;;7397702;19;20203;-73
2023/12/28 06:50:43;;;;;;;1.43;1.30;;;;;6.70;94216.00;;;;7378047;19;20140;-73
2023/12/28 06:53:20;;;;;;;3.50;1.37;;;;;6.70;94209.00;;;;7372550;19;20147;-73
2023/12/28 06:55:49;;;;;;;1.37;1.27;;;;;6.80;94209.00;;;;7378166;19;20598;-73
2023/12/28 06:58:23;;;;;;;1.70;1.27;;;;;6.70;94215.00;;;;7382518;19;20144;-74
2023/12/28 07:00:58;;;;;;;1.83;1.30;;;;;6.80;94214.00;;;;7384610;19;20141;-73
2023/12/28 07:03:35;;;;;;;5.63;1.53;;;;;6.90;94209.00;;;;7385950;19;20588;-74
2023/12/28 07:06:13;;;;;;;2.60;1.33;;;;;6.90;94215.00;;;;7386065;19;20148;-71
2023/12/28 07:08:48;;;;;;;1.73;1.40;;;;;6.90;94211.00;;;;7385906;19;20148;-71
2023/12/28 07:11:17;;;;;;;3.90;1.83;;;;;7.00;94214.00;;;;7386804;19;20150;-70
2023/12/28 07:13:53;;;;;;;2.93;1.60;;;;;7.00;94210.00;;;;7383462;19;20144;-73
2023/12/28 07:16:21;;;;;;;2.70;1.43;;;;;7.10;94200.00;;;;7384846;19;20145;-73
2023/12/28 07:18:54;;;;;;;2.73;1.13;;;;;7.20;94198.00;;;;7384217;19;20212;-74
2023/12/28 07:21:24;;;;;;;4.87;1.40;;;;;7.20;94195.00;;;;7383429;19;20215;-70
2023/12/28 07:23:51;;;;;;;2.80;1.30;;;;;7.40;94196.00;;;;7383694;19;20157;-71
2023/12/28 07:26:26;;;;;;;1.63;1.20;;;;;7.40;94198.00;;;;7384863;19;20216;-72
2023/12/28 07:28:54;;;;;;;1.60;1.40;;;;;7.40;94197.00;;;;7384427;19;20181;-71
2023/12/28 07:31:27;;;;;;;2.60;1.30;;;;;7.50;94202.00;;;;7383828;19;20173;-73
2023/12/28 07:34:00;;;;;;;1.83;1.33;;;;;7.30;94205.00;;;;7383082;19;20152;-72
2023/12/28 07:36:35;;;;;;;2.87;1.40;;;;;7.20;94222.00;;;;7385224;19;23425;-74
2023/12/28 07:39:15;;;;;;;1.33;1.13;;;;;7.20;94216.00;;;;7381491;19;20151;-73
2023/12/28 07:41:49;;;;;;;2.20;1.40;;;;;7.10;94217.00;;;;7383038;19;20180;-72
2023/12/28 07:44:23;;;;;;;2.20;1.47;;;;;7.10;94210.00;;;;7382470;19;20156;-73
2023/12/28 07:47:00;;;;;;;2.80;1.60;;;;;7.20;94207.00;;;;7385442;19;20534;-76
2023/12/28 07:49:36;;;;;;;1.97;1.30;;;;;7.10;94220.00;;;;7382479;19;20188;-75
2023/12/28 07:52:13;;;;;;;2.70;1.50;;;;;7.20;94215.00;;;;7382986;19;20592;-77
2023/12/28 07:54:47;;;;;;;2.87;1.53;;;;;7.10;94226.00;;;;7383282;19;20132;-73
2023/12/28 07:57:21;;;;;;;1.73;1.23;;;;;7.10;94225.00;;;;7380250;19;20156;-74
2023/12/28 08:00:07;;;;;;;2.80;1.33;;;;;7.10;94225.00;;;;7382730;19;20584;-74
2023/12/28 08:02:47;;;;;;;5.80;1.63;;;;;7.10;94232.00;;;;7381964;19;20145;-74
2023/12/28 08:05:15;;;;;;;3.77;1.60;;;;;7.10;94223.00;;;;7381805;19;20151;-73
2023/12/28 08:07:52;;;;;;;2.20;1.50;;;;;7.10;94227.00;;;;7389344;19;20588;-74
2023/12/28 08:10:27;;;;;;;3.13;1.60;;;;;7.00;94233.00;;;;7387288;19;20151;-73
2023/12/28 08:12:55;;;;;;;3.07;1.47;;;;;6.80;94225.00;;;;7387369;19;20121;-73
2023/12/28 08:15:28;;;;;;;3.70;1.80;;;;;6.90;94229.00;;;;7388977;19;20213;-72
2023/12/28 08:18:09;;;;;;;2.10;1.60;;;;;6.80;94231.00;;;;7386982;19;20137;-73
2023/12/28 08:20:45;;;;;;;3.00;1.60;;;;;6.80;94248.00;;;;7387359;19;20589;-74
2023/12/28 08:23:20;;;;;;;2.77;1.57;;;;;6.60;94238.00;;;;7387224;19;20169;-74
2023/12/28 08:25:54;;;;;;;3.20;1.40;;;;;6.60;94237.00;;;;7386061;19;20556;-75
2023/12/28 08:28:29;;;;;;;3.60;1.67;;;;;6.50;94238.00;;;;7387566;19;20596;-74
2023/12/28 08:31:03;;;;;;;2.67;2.07;;;;;6.40;94247.00;;;;7387163;19;20148;-73
2023/12/28 08:33:39;;;;;;;3.53;1.30;;;;;6.40;94252.00;;;;7388395;19;20132;-74
2023/12/28 08:36:16;;;;;;;3.27;1.43;;;;;6.40;94249.00;;;;7387734;19;20150;-75
2023/12/28 08:38:57;;;;;;;2.10;1.50;;;;;6.50;94252.00;;;;7384774;19;20270;-74
2023/12/28 08:41:25;;;;;;;3.43;1.60;;;;;6.50;94233.00;;;;7387873;19;20209;-75
2023/12/28 08:43:59;;;;;;;2.77;1.80;;;;;6.50;94231.00;;;;7388082;19;20472;-73
2023/12/28 08:46:27;;;;;;;4.23;1.80;;;;;6.50;94238.00;;;;7385654;19;20157;-74
2023/12/28 08:49:01;;;;;;;3.00;1.70;;;;;6.50;94240.00;;;;7386619;19;20168;-76
2023/12/28 08:51:29;;;;;;;2.30;1.67;;;;;6.50;94234.00;;;;7386436;19;20175;-73
2023/12/28 08:54:02;;;;;;;4.63;2.07;;;;;6.50;94220.00;;;;7386504;19;20148;-75
2023/12/28 08:56:36;;;;;;;3.30;1.80;;;;;6.50;94207.00;;;;7384542;19;20513;-74
2023/12/28 08:59:10;;;;;;;3.77;1.77;;;;;6.50;94223.00;;;;7388511;19;20132;-75
2023/12/28 09:01:40;;;;;;;4.47;2.00;;;;;6.50;94213.00;;;;7386246;19;20140;-74
2023/12/28 09:04:14;;;;;;;6.83;2.20;;;;;6.70;94216.00;;;;7386636;19;20598;-73
2023/12/28 09:06:52;;;;;;;2.60;1.70;;;;;6.50;94218.00;;;;7385237;19;20147;-74
2023/12/28 09:09:26;;;;;;;3.27;1.73;;;;;6.60;94226.00;;;;7388848;19;20608;-75
2023/12/28 09:12:11;;;;;;;3.87;1.93;;;;;6.80;94232.00;;;;7387837;19;20120;-73
2023/12/28 09:14:52;;;;;;;2.80;1.40;;;;;6.70;94228.00;;;;7386102;19;20128;-74
2023/12/28 09:17:28;;;;;;;3.90;1.90;;;;;7.00;94242.00;;;;7386797;19;20211;-74
2023/12/28 09:20:03;;;;;;;4.10;1.70;;;;;6.90;94250.00;;;;7384070;19;20132;-74
2023/12/28 09:22:31;;;;;;;3.47;1.63;;;;;6.80;94257.00;;;;7387171;19;20121;-74
2023/12/28 09:25:05;;;;;;;2.50;1.63;;;;;7.00;94247.00;;;;7386845;19;20184;-74
2023/12/28 09:27:40;;;;;;;5.20;1.93;;;;;7.20;94256.00;;;;7387679;19;20128;-77
2023/12/28 09:30:14;;;;;;;5.10;1.50;;;;;7.20;94255.00;;;;7387800;19;20133;-77
2023/12/28 09:32:42;;;;;;;1.80;1.50;;;;;7.20;94247.00;;;;7382662;19;20135;-77
2023/12/28 09:35:17;;;;;;;2.83;1.50;;;;;7.10;94246.00;;;;7384692;19;20499;-76
2023/12/28 09:37:51;;;;;;;2.40;1.60;;;;;7.30;94263.00;;;;7385945;19;20182;-78
2023/12/28 09:40:33;;;;;;;5.23;1.60;;;;;7.40;94266.00;;;;7384089;19;20157;-76
2023/12/28 09:43:26;;;;;;;1.97;1.37;;;;;7.40;94264.00;;;;7386352;19;20148;-75
2023/12/28 09:46:02;;;;;;;3.13;1.50;;;;;7.40;94270.00;;;;7384883;19;20149;-77
2023/12/28 09:48:38;;;;;;;2.20;1.30;;;;;7.30;94275.00;;;;7385582;19;20659;-76
2023/12/28 09:51:13;;;;;;;2.73;1.50;;;;;7.30;94266.00;;;;7384951;19;20176;-77
2023/12/28 09:53:48;;;;;;;1.30;1.13;;;;;7.30;94264.00;;;;7386220;19;20543;-77
2023/12/28 09:56:23;;;;;;;1.63;1.27;;;;;7.40;94265.00;;;;7384107;19;20172;-77
2023/12/28 09:58:58;;;;;;;1.93;1.70;;;;;7.30;94265.00;;;;7385479;19;20148;-77
2023/12/28 10:01:34;;;;;;;1.67;1.40;;;;;7.30;94262.00;;;;7384320;19;20151;-78
2023/12/28 10:04:03;;;;;;;2.27;1.47;;;;;7.10;94244.00;;;;7382006;19;20178;-79
2023/12/28 10:06:37;;;;;;;2.40;1.40;;;;;7.20;94262.00;;;;7386498;19;20124;-77
2023/12/28 10:09:09;;;;;;;2.50;1.20;;;;;7.00;94269.00;;;;7384700;19;20224;-75
2023/12/28 10:11:43;;;;;;;2.13;1.27;;;;;6.90;94252.00;;;;7383695;19;20180;-78
2023/12/28 10:14:21;;;;;;;3.13;1.30;;;;;7.10;94265.00;;;;7383011;19;20147;-80
2023/12/28 10:16:55;;;;;;;1.40;1.00;;;;;7.00;94269.00;;;;7384115;19;20162;-76
2023/12/28 10:19:29;;;;;;;1.57;1.17;;;;;7.10;94263.00;;;;7383189;19;20675;-77
2023/12/28 10:22:04;;;;;;;2.03;1.57;;;;;7.20;94268.00;;;;7384769;19;20189;-75
2023/12/28 10:24:43;;;;;;;3.10;1.20;;;;;7.30;94264.00;;;;7383852;19;20586;-78
2023/12/28 10:27:11;;;;;;;3.17;1.30;;;;;7.40;94261.00;;;;7384762;19;20125;-76
2023/12/28 10:29:45;;;;;;;4.23;1.47;;;;;7.50;94253.00;;;;7381172;19;20480;-78
2023/12/28 10:32:20;;;;;;;2.10;1.20;;;;;7.80;94238.00;;;;7385926;19;20128;-74
2023/12/28 10:34:54;;;;;;;1.67;1.30;;;;;7.90;94235.00;;;;7382768;19;20163;-76
2023/12/28 10:37:33;;;;;;;2.47;1.50;;;;;8.20;94227.00;;;;7384047;19;20557;-77
2023/12/28 10:40:26;;;;;;;3.03;1.33;;;;;8.10;94211.00;;;;7382953;19;20492;-76
2023/12/28 10:43:05;;;;;;;1.10;1.00;;;;;8.10;94234.00;;;;7382349;19;20172;-76
2023/12/28 10:45:43;;;;;;;2.35;1.48;;;;;7.90;94237.00;;;;7383978;19;20149;-73
2023/12/28 10:48:12;;;;;;;1.47;1.10;;;;;8.10;94223.00;;;;7381138;19;20145;-74
2023/12/28 10:50:49;;;;;;;1.75;1.13;;;;;8.10;94233.00;;;;7379152;19;20156;-77
2023/12/28 10:53:48;;;;;;;1.35;1.15;;;;;8.10;94236.00;;;;7384132;19;21521;-76
2023/12/28 10:57:07;;;;;;;1.13;0.90;;;;;8.20;94228.00;;;;7382677;19;20177;-74
2023/12/28 10:59:52;;;;;;;1.43;1.00;;;;;8.20;94226.00;;;;7381022;19;20619;-76
2023/12/28 11:02:44;;;;;;;1.30;0.90;;;;;8.00;94230.00;;;;7385046;19;20475;-76
2023/12/28 11:05:17;;;;;;;3.03;1.03;;;;;7.80;94216.00;;;;7382753;19;20588;-74
2023/12/28 11:07:54;;;;;;;1.37;0.93;;;;;7.90;94216.00;;;;7382280;19;20455;-75
2023/12/28 11:10:23;;;;;;;2.22;1.00;;;;;7.80;94222.00;;;;7380805;19;20533;-76
2023/12/28 11:13:03;;;;;;;1.10;1.00;;;;;7.80;94216.00;;;;7382209;19;20591;-74
2023/12/28 11:15:39;;;;;;;1.20;1.08;;;;;7.80;94219.00;;;;7383165;19;20196;-73
2023/12/28 11:18:06;;;;;;;1.10;1.00;;;;;7.90;94222.00;;;;7381179;19;20605;-73
2023/12/28 11:20:38;;;;;;;1.58;1.25;;;;;7.80;94213.00;;;;7382173;19;24041;-75
2023/12/28 11:23:12;;;;;;;2.17;1.10;;;;;8.00;94214.00;;;;7381297;19;20139;-75
2023/12/28 11:25:41;;;;;;;1.00;0.97;;;;;7.90;94232.00;;;;7381511;19;20196;-73
2023/12/28 11:28:16;;;;;;;1.80;1.30;;;;;7.90;94213.00;;;;7380124;19;20159;-74
2023/12/28 11:30:51;;;;;;;1.23;0.85;;;;;8.00;94212.00;;;;7383233;19;20137;-74
2023/12/28 11:33:31;;;;;;;1.17;0.93;;;;;7.80;94214.00;;;;7382753;19;20124;-76
2023/12/28 11:35:59;;;;;;;1.83;1.10;;;;;8.00;94215.00;;;;7380556;19;20215;-73
2023/12/28 11:38:41;;;;;;;1.50;1.03;;;;;7.90;94211.00;;;;7368059;19;20155;-74
2023/12/28 11:41:18;;;;;;;1.10;1.00;;;;;8.20;94210.00;;;;7362938;19;20630;-74
2023/12/28 11:43:55;;;;;;;2.00;1.25;;;;;8.20;94216.00;;;;7367480;19;20152;-75
2023/12/28 11:46:32;;;;;;;1.08;0.98;;;;;8.10;94198.00;;;;7368004;19;20628;-76
2023/12/28 11:49:24;;;;;;;1.85;1.15;;;;;8.00;94202.00;;;;7368975;19;20129;-75
2023/12/28 11:52:00;;;;;;;3.63;2.90;;;;;8.20;94210.00;;;;7367412;19;20140;-79
2023/12/28 11:54:34;;;;;;;1.20;1.10;;;;;8.10;94217.00;;;;7367263;19;20592;-75
2023/12/28 11:57:07;;;;;;;2.10;1.80;;;;;8.00;94212.00;;;;7367202;19;20152;-78
2023/12/28 11:59:46;;;;;;;1.67;1.58;;;;;7.90;94216.00;;;;7366819;19;20174;-75
2023/12/28 12:02:15;;;;;;;1.92;1.75;;;;;7.90;94205.00;;;;7367701;19;20152;-76
2023/12/28 12:04:43;;;;;;;1.35;1.10;;;;;7.80;94202.00;;;;7377097;19;20632;-77
2023/12/28 12:07:22;;;;;;;1.75;1.27;;;;;7.80;94203.00;;;;7389108;19;20220;-78
2023/12/28 12:09:54;;;;;;;1.95;1.20;;;;;7.90;94194.00;;;;7390094;19;20882;-76
2023/12/28 12:12:30;;;;;;;1.10;1.00;;;;;7.80;94198.00;;;;7389055;19;20597;-75
2023/12/28 12:15:05;;;;;;;3.45;1.27;;;;;7.90;94195.00;;;;7388809;19;20132;-79
2023/12/28 12:17:39;;;;;;;2.53;1.63;;;;;8.10;94182.00;;;;7371604;19;20132;-78
2023/12/28 12:20:09;;;;;;;1.58;0.98;;;;;7.90;94186.00;;;;7382632;19;20166;-77
2023/12/28 12:22:37;;;;;;;1.02;1.00;;;;;8.00;94196.00;;;;7388578;19;20148;-78
2023/12/28 12:25:11;;;;;;;0.88;0.88;;;;;8.00;94202.00;;;;7385071;19;20148;-79
2023/12/28 12:27:45;;;;;;;2.67;1.17;;;;;7.80;94192.00;;;;7385950;19;20467;-78
2023/12/28 12:30:13;;;;;;;4.15;3.30;;;;;7.90;94179.00;;;;7383285;19;20148;-79
2023/12/28 12:32:48;;;;;;;1.80;1.58;;;;;7.90;94181.00;;;;7386846;19;20124;-80
2023/12/28 12:35:22;;;;;;;1.67;1.02;;;;;7.90;94170.00;;;;7384561;19;20608;-77
2023/12/28 12:38:08;;;;;;;1.90;1.65;;;;;7.90;94170.00;;;;7385224;19;20163;-76
2023/12/28 12:40:51;;;;;;;1.65;1.30;;;;;7.80;94173.00;;;;7385800;19;20208;-78
2023/12/28 12:43:38;;;;;;;2.13;1.00;;;;;8.10;94162.00;;;;7384536;19;20543;-81
2023/12/28 12:46:15;;;;;;;1.00;0.90;;;;;8.20;94167.00;;;;7385178;19;20131;-78
2023/12/28 12:48:56;;;;;;;1.42;1.20;;;;;8.20;94179.00;;;;7384416;19;20140;-78
2023/12/28 12:51:25;;;;;;;1.60;1.50;;;;;8.20;94167.00;;;;7385254;19;20902;-78
2023/12/28 12:54:02;;;;;;;1.60;1.48;;;;;8.10;94160.00;;;;7381880;19;20152;-77
2023/12/28 12:56:31;;;;;;;1.55;1.42;;;;;8.30;94169.00;;;;7385641;19;21669;-77
2023/12/28 12:59:07;;;;;;;1.27;1.15;;;;;8.30;94167.00;;;;7385174;19;20140;-75
2023/12/28 13:01:40;;;;;;;1.67;1.25;;;;;8.10;94178.00;;;;7385319;19;20128;-75
2023/12/28 13:04:16;;;;;;;1.55;1.20;;;;;8.10;94170.00;;;;7385525;19;20145;-77
2023/12/28 13:06:46;;;;;;;1.35;1.25;;;;;8.00;94166.00;;;;7383670;19;20596;-77